createdAt,value
2018-08-24T00:01:35.192Z,7.30
2018-08-24T00:04:06.860Z,12.43
2018-08-24T00:06:34.745Z,7.30
2018-08-24T00:09:02.780Z,8.67
2018-08-24T00:11:30.459Z,10.20
2018-08-24T00:13:58.120Z,8.20
2018-08-24T00:16:31.345Z,9.23
2018-08-24T00:18:58.997Z,7.53
2018-08-24T00:21:26.665Z,8.23
2018-08-24T00:23:54.301Z,10.17
2018-08-24T00:26:21.981Z,7.90
2018-08-24T00:28:49.623Z,6.43
2018-08-24T00:31:17.277Z,7.53
2018-08-24T00:33:50.210Z,7.50
2018-08-24T00:36:17.853Z,5.63
2018-08-24T00:38:45.609Z,4.93
2018-08-24T00:41:13.353Z,7.17
2018-08-24T00:43:41.025Z,8.43
2018-08-24T00:46:08.721Z,5.37
2018-08-24T00:48:36.593Z,7.83
2018-08-24T00:51:04.325Z,5.77
2018-08-24T00:53:31.990Z,5.30
2018-08-24T00:55:59.649Z,5.40
2018-08-24T00:58:27.297Z,7.27
2018-08-24T01:01:00.846Z,12.77
2018-08-24T01:03:29.030Z,6.63
2018-08-24T01:05:56.697Z,9.87
2018-08-24T01:08:24.385Z,8.37
2018-08-24T01:10:52.049Z,5.83
2018-08-24T01:13:19.700Z,8.97
2018-08-24T01:15:52.368Z,5.77
2018-08-24T01:18:22.160Z,6.10
2018-08-24T01:20:51.153Z,6.43
2018-08-24T01:23:21.380Z,5.33
2018-08-24T01:25:49.237Z,9.03
2018-08-24T01:28:17.848Z,9.83
2018-08-24T01:30:46.533Z,6.17
2018-08-24T01:33:14.317Z,7.70
2018-08-24T01:35:41.978Z,9.10
2018-08-24T01:38:09.910Z,6.63
2018-08-24T01:40:37.673Z,6.93
2018-08-24T01:43:05.518Z,7.97
2018-08-24T01:45:33.209Z,7.17
2018-08-24T01:48:00.853Z,6.57
2018-08-24T01:50:28.513Z,7.57
2018-08-24T01:52:56.201Z,9.27
2018-08-24T01:55:23.845Z,8.20
2018-08-24T01:57:51.501Z,7.63
2018-08-24T02:00:19.209Z,11.10
2018-08-24T02:02:46.874Z,7.00
2018-08-24T02:05:14.565Z,7.93
2018-08-24T02:07:42.302Z,8.83
2018-08-24T02:10:15.462Z,8.97
2018-08-24T02:12:48.644Z,10.87
2018-08-24T02:15:16.385Z,6.40
2018-08-24T02:17:49.648Z,8.00
2018-08-24T02:20:22.706Z,8.43
2018-08-24T02:22:53.978Z,7.13
2018-08-24T02:25:22.135Z,5.90
2018-08-24T02:27:49.789Z,8.27
2018-08-24T02:30:17.437Z,6.17
2018-08-24T02:32:45.105Z,6.43
2018-08-24T02:35:12.761Z,7.57
2018-08-24T02:37:40.485Z,7.67
2018-08-24T02:40:08.149Z,8.33
2018-08-24T02:42:35.793Z,7.33
2018-08-24T02:45:03.700Z,10.13
2018-08-24T02:47:31.301Z,7.13
2018-08-24T02:49:58.981Z,6.13
2018-08-24T02:52:26.633Z,12.13
2018-08-24T02:54:54.318Z,6.60
2018-08-24T02:57:21.969Z,10.13
2018-08-24T02:59:49.645Z,8.50
2018-08-24T03:02:17.338Z,10.07
2018-08-24T03:04:44.988Z,9.07
2018-08-24T03:07:12.670Z,6.60
2018-08-24T03:09:40.314Z,8.40
2018-08-24T03:12:07.981Z,7.00
2018-08-24T03:14:35.637Z,11.33
2018-08-24T03:17:09.094Z,8.00
2018-08-24T03:19:36.769Z,10.53
2018-08-24T03:22:04.445Z,7.40
2018-08-24T03:24:32.142Z,7.60
2018-08-24T03:26:59.817Z,13.23
2018-08-24T03:29:27.794Z,9.30
2018-08-24T03:31:55.523Z,11.17
2018-08-24T03:34:23.190Z,5.83
2018-08-24T03:36:50.912Z,6.97
2018-08-24T03:39:18.562Z,8.23
2018-08-24T03:41:46.234Z,12.13
2018-08-24T03:44:13.925Z,11.10
2018-08-24T03:46:41.565Z,10.10
2018-08-24T03:49:09.265Z,8.37
2018-08-24T03:51:37.055Z,12.83
2018-08-24T03:54:20.946Z,8.00
2018-08-24T03:56:53.758Z,10.27
2018-08-24T03:59:21.807Z,15.43
2018-08-24T04:01:49.527Z,17.20
2018-08-24T04:04:24.120Z,11.33
2018-08-24T04:06:51.817Z,14.67
2018-08-24T04:09:19.457Z,17.10
2018-08-24T04:11:47.173Z,14.33
2018-08-24T04:14:14.829Z,13.53
2018-08-24T04:16:47.868Z,12.03
2018-08-24T04:19:21.068Z,14.33
2018-08-24T04:21:48.725Z,14.45
2018-08-24T04:24:16.426Z,15.17
2018-08-24T04:26:44.121Z,13.43
2018-08-24T04:29:11.789Z,13.07
2018-08-24T04:31:39.457Z,9.87
2018-08-24T04:34:07.133Z,13.90
2018-08-24T04:36:35.365Z,14.67
2018-08-24T04:39:04.153Z,13.40
2018-08-24T04:41:32.176Z,11.80
2018-08-24T04:43:59.878Z,10.53
2018-08-24T04:46:27.527Z,10.90
2018-08-24T04:48:55.230Z,11.60
2018-08-24T04:51:23.031Z,8.17
2018-08-24T04:53:50.778Z,13.90
2018-08-24T04:56:18.455Z,9.17
2018-08-24T04:58:46.117Z,10.73
2018-08-24T05:01:13.801Z,9.87
2018-08-24T05:03:41.537Z,9.83
2018-08-24T05:06:09.222Z,10.83
2018-08-24T05:08:36.973Z,8.77
2018-08-24T05:11:04.741Z,10.47
2018-08-24T05:13:32.377Z,9.43
2018-08-24T05:16:00.453Z,8.40
2018-08-24T05:18:28.141Z,8.23
2018-08-24T05:20:55.858Z,9.70
2018-08-24T05:23:23.622Z,12.33
2018-08-24T05:25:51.406Z,10.10
2018-08-24T05:28:19.088Z,10.27
2018-08-24T05:30:46.745Z,15.47
2018-08-24T05:33:14.506Z,14.00
2018-08-24T05:35:42.246Z,11.37
2018-08-24T05:38:09.881Z,16.23
2018-08-24T05:40:37.846Z,10.30
2018-08-24T05:43:05.547Z,8.17
2018-08-24T05:45:33.277Z,7.53
2018-08-24T05:48:00.933Z,6.70
2018-08-24T05:50:28.729Z,8.87
2018-08-24T05:52:56.553Z,10.10
2018-08-24T05:55:24.257Z,9.43
2018-08-24T05:57:51.985Z,10.17
2018-08-24T06:00:24.127Z,10.93
2018-08-24T06:02:51.816Z,7.50
2018-08-24T06:05:19.473Z,8.03
2018-08-24T06:07:47.193Z,10.87
2018-08-24T06:10:14.854Z,7.63
2018-08-24T06:12:42.520Z,12.40
2018-08-24T06:15:10.289Z,8.57
2018-08-24T06:17:43.387Z,11.07
2018-08-24T06:20:11.075Z,10.87
2018-08-24T06:22:39.041Z,11.10
2018-08-24T06:25:06.821Z,8.47
2018-08-24T06:27:34.531Z,10.73
2018-08-24T06:30:02.216Z,11.30
2018-08-24T06:32:29.959Z,9.83
2018-08-24T06:34:57.669Z,9.73
2018-08-24T06:37:25.309Z,9.97
2018-08-24T06:39:52.961Z,10.07
2018-08-24T06:42:20.661Z,9.63
2018-08-24T06:44:48.393Z,10.43
2018-08-24T06:47:16.103Z,6.73
2018-08-24T06:49:44.028Z,7.70
2018-08-24T06:52:11.685Z,7.70
2018-08-24T06:54:39.337Z,7.83
2018-08-24T06:57:07.078Z,8.93
2018-08-24T06:59:34.763Z,6.07
2018-08-24T07:02:02.418Z,7.33
2018-08-24T07:04:30.086Z,3.50
2018-08-24T07:06:57.750Z,6.17
2018-08-24T07:09:25.501Z,7.67
2018-08-24T07:11:53.174Z,6.23
2018-08-24T07:14:20.842Z,6.43
2018-08-24T07:16:51.730Z,6.60
2018-08-24T07:19:19.394Z,5.53
2018-08-24T07:21:47.067Z,6.40
2018-08-24T07:24:14.757Z,7.93
2018-08-24T07:26:42.478Z,8.37
2018-08-24T07:29:10.150Z,6.97
2018-08-24T07:31:37.809Z,6.93
2018-08-24T07:34:05.533Z,5.57
2018-08-24T07:36:33.204Z,3.97
2018-08-24T07:39:00.865Z,3.73
2018-08-24T07:41:29.523Z,4.73
2018-08-24T07:43:57.201Z,5.03
2018-08-24T07:46:25.171Z,4.53
2018-08-24T07:48:52.894Z,4.33
2018-08-24T07:51:20.575Z,3.47
2018-08-24T07:53:48.260Z,4.17
2018-08-24T07:56:15.948Z,3.50
2018-08-24T07:58:43.627Z,7.63
2018-08-24T08:01:11.364Z,6.03
2018-08-24T08:03:39.056Z,4.70
2018-08-24T08:06:06.745Z,4.53
2018-08-24T08:08:34.440Z,5.00
2018-08-24T08:11:02.090Z,4.50
2018-08-24T08:13:29.763Z,6.37
2018-08-24T08:15:57.450Z,6.60
2018-08-24T08:18:25.099Z,7.27
2018-08-24T08:20:52.792Z,4.13
2018-08-24T08:23:20.481Z,3.90
2018-08-24T08:25:48.301Z,11.57
2018-08-24T08:28:16.064Z,4.00
2018-08-24T08:30:43.757Z,5.37
2018-08-24T08:33:11.421Z,4.63
2018-08-24T08:35:39.075Z,8.73
2018-08-24T08:38:06.930Z,3.97
2018-08-24T08:40:34.585Z,3.80
2018-08-24T08:43:02.240Z,5.50
2018-08-24T08:45:29.986Z,3.70
2018-08-24T08:47:57.613Z,5.43
2018-08-24T08:50:25.261Z,4.03
2018-08-24T08:52:54.015Z,6.33
2018-08-24T08:55:21.712Z,5.43
2018-08-24T08:57:49.397Z,6.37
2018-08-24T09:00:17.081Z,4.60
2018-08-24T09:02:44.740Z,4.00
2018-08-24T09:05:12.425Z,4.03
2018-08-24T09:07:40.125Z,5.13
2018-08-24T09:10:07.845Z,5.53
2018-08-24T09:12:35.513Z,5.40
2018-08-24T09:15:03.272Z,3.57
2018-08-24T09:17:36.462Z,3.50
2018-08-24T09:20:09.872Z,4.47
2018-08-24T09:22:43.001Z,3.83
2018-08-24T09:25:16.318Z,5.30
2018-08-24T09:27:49.482Z,5.60
2018-08-24T09:30:17.257Z,4.57
2018-08-24T09:32:45.180Z,5.80
2018-08-24T09:35:12.745Z,4.10
2018-08-24T09:37:40.448Z,5.80
2018-08-24T09:40:08.468Z,5.80
2018-08-24T09:42:36.125Z,3.77
2018-08-24T09:45:04.290Z,5.40
2018-08-24T09:47:37.341Z,4.87
2018-08-24T09:50:11.369Z,6.73
2018-08-24T09:52:39.113Z,5.87
2018-08-24T09:55:06.870Z,6.37
2018-08-24T09:57:34.557Z,6.10
2018-08-24T10:00:02.354Z,4.33
2018-08-24T10:02:35.611Z,4.40
2018-08-24T10:05:08.751Z,7.30
2018-08-24T10:07:41.911Z,3.77
2018-08-24T10:10:09.577Z,6.50
2018-08-24T10:12:38.043Z,6.30
2018-08-24T10:15:07.728Z,7.37
2018-08-24T10:17:35.438Z,5.73
2018-08-24T10:20:03.220Z,4.67
2018-08-24T10:22:31.798Z,5.43
2018-08-24T10:24:59.487Z,4.23
2018-08-24T10:27:27.241Z,5.67
2018-08-24T10:29:54.937Z,5.23
2018-08-24T10:32:22.602Z,5.13
2018-08-24T10:34:50.253Z,4.40
2018-08-24T10:37:18.093Z,3.17
2018-08-24T10:39:45.757Z,3.40
2018-08-24T10:42:13.486Z,3.93
2018-08-24T10:44:41.197Z,3.03
2018-08-24T10:47:08.855Z,3.27
2018-08-24T10:49:36.517Z,6.73
2018-08-24T10:52:04.225Z,4.20
2018-08-24T10:54:31.889Z,3.07
2018-08-24T10:56:59.582Z,3.30
2018-08-24T10:59:27.259Z,3.40
2018-08-24T11:01:54.966Z,4.43
2018-08-24T11:04:22.640Z,4.70
2018-08-24T11:06:50.347Z,5.53
2018-08-24T11:09:18.003Z,4.53
2018-08-24T11:11:45.776Z,5.43
2018-08-24T11:14:13.437Z,6.00
2018-08-24T11:16:41.104Z,3.67
2018-08-24T11:19:08.783Z,3.97
2018-08-24T11:21:36.477Z,5.47
2018-08-24T11:24:04.141Z,4.43
2018-08-24T11:26:31.812Z,3.67
2018-08-24T11:29:00.197Z,7.77
2018-08-24T11:31:27.948Z,4.03
2018-08-24T11:33:55.695Z,3.70
2018-08-24T11:36:23.568Z,5.73
2018-08-24T11:38:51.230Z,3.43
2018-08-24T11:41:18.905Z,5.10
2018-08-24T11:46:22.005Z,4.37
2018-08-24T11:48:49.713Z,3.23
2018-08-24T11:51:17.500Z,3.70
2018-08-24T11:53:45.274Z,4.90
2018-08-24T11:56:12.961Z,3.57
2018-08-24T11:58:40.641Z,5.07
2018-08-24T12:01:08.481Z,3.73
2018-08-24T12:03:36.196Z,4.73
2018-08-24T12:06:03.880Z,3.87
2018-08-24T12:08:31.568Z,3.40
2018-08-24T12:10:59.277Z,4.57
2018-08-24T12:13:26.981Z,4.17
2018-08-24T12:15:54.744Z,4.63
2018-08-24T12:18:22.622Z,2.97
2018-08-24T12:20:50.336Z,3.77
2018-08-24T12:23:18.098Z,3.50
2018-08-24T12:25:45.841Z,3.67
2018-08-24T12:28:13.582Z,3.90
2018-08-24T12:30:41.360Z,3.20
2018-08-24T12:33:09.040Z,3.53
2018-08-24T12:35:36.753Z,5.20
2018-08-24T12:38:05.211Z,5.60
2018-08-24T12:40:32.937Z,3.67
2018-08-24T12:43:00.662Z,5.60
2018-08-24T12:45:28.761Z,5.60
2018-08-24T12:47:56.473Z,5.87
2018-08-24T12:50:24.257Z,4.60
2018-08-24T12:52:52.001Z,4.77
2018-08-24T12:55:19.698Z,3.53
2018-08-24T12:57:47.445Z,3.37
2018-08-24T13:00:15.201Z,5.53
2018-08-24T13:02:42.949Z,4.23
2018-08-24T13:05:10.701Z,4.53
2018-08-24T13:07:38.453Z,5.20
2018-08-24T13:10:06.201Z,3.10
2018-08-24T13:12:33.899Z,4.63
2018-08-24T13:15:01.809Z,3.50
2018-08-24T13:17:29.494Z,4.43
2018-08-24T13:19:57.221Z,5.03
2018-08-24T13:22:24.968Z,4.73
2018-08-24T13:24:52.750Z,5.93
2018-08-24T13:27:20.509Z,4.53
2018-08-24T13:29:48.185Z,7.20
2018-08-24T13:32:15.915Z,4.33
2018-08-24T13:34:43.605Z,3.90
2018-08-24T13:37:11.988Z,5.27
2018-08-24T13:39:39.650Z,5.10
2018-08-24T13:42:07.396Z,6.50
2018-08-24T13:44:35.097Z,4.20
2018-08-24T13:47:02.869Z,3.57
2018-08-24T13:49:30.580Z,4.90
2018-08-24T13:51:58.340Z,4.07
2018-08-24T13:54:26.013Z,5.17
2018-08-24T13:56:53.708Z,5.93
2018-08-24T13:59:21.508Z,4.33
2018-08-24T14:01:49.197Z,3.63
2018-08-24T14:04:16.961Z,3.87
2018-08-24T14:06:44.683Z,3.13
2018-08-24T14:09:12.882Z,7.47
2018-08-24T14:11:40.567Z,6.17
2018-08-24T14:14:08.422Z,3.50
2018-08-24T14:16:36.577Z,5.47
2018-08-24T14:19:04.335Z,6.60
2018-08-24T14:21:32.122Z,4.67
2018-08-24T14:23:59.852Z,6.73
2018-08-24T14:26:27.559Z,5.07
2018-08-24T14:28:55.650Z,5.73
2018-08-24T14:31:23.385Z,3.77
2018-08-24T14:33:51.048Z,4.27
2018-08-24T14:36:18.796Z,5.83
2018-08-24T14:38:46.583Z,4.80
2018-08-24T14:41:14.339Z,4.47
2018-08-24T14:43:42.102Z,4.07
2018-08-24T14:46:09.799Z,6.03
2018-08-24T14:48:37.603Z,4.87
2018-08-24T14:51:05.468Z,5.23
2018-08-24T14:53:33.313Z,4.30
2018-08-24T14:56:01.014Z,5.17
2018-08-24T14:58:28.709Z,5.83
2018-08-24T15:00:56.414Z,4.57
2018-08-24T15:03:24.081Z,6.30
2018-08-24T15:05:51.770Z,4.17
2018-08-24T15:08:19.429Z,5.70
2018-08-24T15:10:47.094Z,5.83
2018-08-24T15:13:14.816Z,6.53
2018-08-24T15:15:42.480Z,4.83
2018-08-24T15:18:10.135Z,9.03
2018-08-24T15:20:37.849Z,4.87
2018-08-24T15:23:05.548Z,6.50
2018-08-24T15:25:33.279Z,5.73
2018-08-24T15:28:00.962Z,5.10
2018-08-24T15:30:28.625Z,6.80
2018-08-24T15:32:56.287Z,5.33
2018-08-24T15:35:23.993Z,4.70
2018-08-24T15:37:51.646Z,4.93
2018-08-24T15:40:19.307Z,5.50
2018-08-24T15:42:47.218Z,5.60
2018-08-24T15:45:14.881Z,5.50
2018-08-24T15:47:42.590Z,7.80
2018-08-24T15:50:10.318Z,6.57
2018-08-24T15:52:38.000Z,8.60
2018-08-24T15:55:05.943Z,7.10
2018-08-24T15:57:33.631Z,6.17
2018-08-24T16:00:01.355Z,5.17
2018-08-24T16:02:28.998Z,5.60
2018-08-24T16:04:56.701Z,7.30
2018-08-24T16:07:24.388Z,5.43
2018-08-24T16:09:52.042Z,7.50
2018-08-24T16:12:19.834Z,4.83
2018-08-24T16:14:48.355Z,9.43
2018-08-24T16:17:16.009Z,6.73
2018-08-24T16:19:43.694Z,6.07
2018-08-24T16:22:11.833Z,6.30
2018-08-24T16:24:39.410Z,9.20
2018-08-24T16:27:09.003Z,7.63
2018-08-24T16:29:36.694Z,5.73
2018-08-24T16:32:04.502Z,7.10
2018-08-24T16:34:32.189Z,6.47
2018-08-24T16:36:59.897Z,5.73
2018-08-24T16:39:27.590Z,6.77
2018-08-24T16:41:55.294Z,8.03
2018-08-24T16:44:22.937Z,6.10
2018-08-24T16:46:50.635Z,8.40
2018-08-24T16:49:18.392Z,8.80
2018-08-24T16:51:46.053Z,8.63
2018-08-24T16:54:13.717Z,8.23
2018-08-24T16:56:41.394Z,8.70
2018-08-24T16:59:09.050Z,10.03
2018-08-24T17:01:36.704Z,8.57
2018-08-24T17:04:04.433Z,9.00
2018-08-24T17:06:32.085Z,9.47
2018-08-24T17:08:59.731Z,7.67
2018-08-24T17:11:27.410Z,12.17
2018-08-24T17:13:55.071Z,7.37
2018-08-24T17:16:23.025Z,9.23
2018-08-24T17:18:50.774Z,9.97
2018-08-24T17:21:18.462Z,9.43
2018-08-24T17:23:46.178Z,7.80
2018-08-24T17:26:13.910Z,9.23
2018-08-24T17:28:41.620Z,10.27
2018-08-24T17:31:09.338Z,7.47
2018-08-24T17:33:37.060Z,7.13
2018-08-24T17:36:04.824Z,7.40
2018-08-24T17:38:32.535Z,6.97
2018-08-24T17:41:00.273Z,5.27
2018-08-24T17:43:27.972Z,8.93
2018-08-24T17:45:55.617Z,9.87
2018-08-24T17:48:23.337Z,5.50
2018-08-24T17:50:51.030Z,6.67
2018-08-24T17:53:18.724Z,8.07
2018-08-24T17:55:46.490Z,9.00
2018-08-24T17:58:14.174Z,8.67
2018-08-24T18:00:41.874Z,5.70
2018-08-24T18:03:09.582Z,9.23
2018-08-24T18:05:37.302Z,8.80
2018-08-24T18:08:05.246Z,6.53
2018-08-24T18:10:33.018Z,8.53
2018-08-24T18:13:00.772Z,7.57
2018-08-24T18:15:28.479Z,6.17
2018-08-24T18:17:56.214Z,7.93
2018-08-24T18:20:23.923Z,7.73
2018-08-24T18:22:51.644Z,4.90
2018-08-24T18:25:19.346Z,7.80
2018-08-24T18:27:47.031Z,10.30
2018-08-24T18:30:14.744Z,10.47
2018-08-24T18:32:42.520Z,8.00
2018-08-24T18:35:10.217Z,9.70
2018-08-24T18:37:37.941Z,8.83
2018-08-24T18:40:06.221Z,10.87
2018-08-24T18:42:33.901Z,8.10
2018-08-24T18:45:01.618Z,9.93
2018-08-24T18:47:29.385Z,9.10
2018-08-24T18:49:57.079Z,8.23
2018-08-24T18:52:24.789Z,7.37
2018-08-24T18:54:52.513Z,9.17
2018-08-24T18:57:20.237Z,8.30
2018-08-24T18:59:47.937Z,5.63
2018-08-24T19:02:15.765Z,8.43
2018-08-24T19:04:43.472Z,8.90
2018-08-24T19:07:11.182Z,6.87
2018-08-24T19:09:38.925Z,5.20
2018-08-24T19:12:12.134Z,6.67
2018-08-24T19:14:39.923Z,6.47
2018-08-24T19:17:12.157Z,6.13
2018-08-24T19:19:45.438Z,8.80
2018-08-24T19:22:13.156Z,5.43
2018-08-24T19:24:40.861Z,6.27
2018-08-24T19:27:08.613Z,10.17
2018-08-24T19:29:41.746Z,4.87
2018-08-24T19:32:09.476Z,8.73
2018-08-24T19:34:37.245Z,6.23
2018-08-24T19:37:04.947Z,6.07
2018-08-24T19:39:32.718Z,6.13
2018-08-24T19:42:06.029Z,5.53
2018-08-24T19:44:33.769Z,4.37
2018-08-24T19:47:01.469Z,4.77
2018-08-24T19:49:29.232Z,5.90
2018-08-24T19:51:56.930Z,7.17
2018-08-24T19:54:24.589Z,6.77
2018-08-24T19:56:52.252Z,4.50
2018-08-24T19:59:20.025Z,5.00
2018-08-24T20:01:47.765Z,5.33
2018-08-24T20:04:15.464Z,5.83
2018-08-24T20:06:48.582Z,6.43
2018-08-24T20:09:21.828Z,5.13
2018-08-24T20:11:50.769Z,5.20
2018-08-24T20:14:23.898Z,6.07
2018-08-24T20:16:57.321Z,5.30
2018-08-24T20:19:25.171Z,7.73
2018-08-24T20:21:52.895Z,6.53
2018-08-24T20:24:20.897Z,7.13
2018-08-24T20:26:49.194Z,5.03
2018-08-24T20:29:17.297Z,4.50
2018-08-24T20:31:45.045Z,5.47
2018-08-24T20:34:12.796Z,6.83
2018-08-24T20:36:40.465Z,4.70
2018-08-24T20:39:09.265Z,6.33
2018-08-24T20:41:36.949Z,6.40
2018-08-24T20:44:04.697Z,5.60
2018-08-24T20:46:32.465Z,5.90
2018-08-24T20:49:00.197Z,7.67
2018-08-24T20:51:27.876Z,8.60
2018-08-24T20:53:55.621Z,7.77
2018-08-24T20:56:23.282Z,6.20
2018-08-24T20:58:50.990Z,6.87
2018-08-24T21:01:18.804Z,8.73
2018-08-24T21:03:46.486Z,9.47
2018-08-24T21:06:14.201Z,6.83
2018-08-24T21:08:41.896Z,7.67
2018-08-24T21:11:09.557Z,8.00
2018-08-24T21:13:37.245Z,9.13
2018-08-24T21:16:05.029Z,8.17
2018-08-24T21:18:32.746Z,9.60
2018-08-24T21:21:00.593Z,10.70
2018-08-24T21:23:28.564Z,6.13
2018-08-24T21:25:56.265Z,8.97
2018-08-24T21:28:24.362Z,6.53
2018-08-24T21:30:52.093Z,10.83
2018-08-24T21:33:19.744Z,8.53
2018-08-24T21:35:47.428Z,6.70
2018-08-24T21:38:15.173Z,10.57
2018-08-24T21:40:43.018Z,6.90
2018-08-24T21:43:10.756Z,7.17
2018-08-24T21:45:38.553Z,8.93
2018-08-24T21:48:06.321Z,7.80
2018-08-24T21:50:34.007Z,7.77
2018-08-24T21:53:01.744Z,10.87
2018-08-24T21:55:29.418Z,11.97
2018-08-24T21:57:57.173Z,9.17
2018-08-24T22:00:25.010Z,7.70
2018-08-24T22:02:52.682Z,8.90
2018-08-24T22:05:20.345Z,8.87
2018-08-24T22:07:48.062Z,8.50
2018-08-24T22:10:15.742Z,8.67
2018-08-24T22:12:43.418Z,10.90
2018-08-24T22:15:11.119Z,8.57
2018-08-24T22:17:38.766Z,7.80
2018-08-24T22:20:06.493Z,8.00
2018-08-24T22:22:34.204Z,9.80
2018-08-24T22:25:01.886Z,11.23
2018-08-24T22:27:29.557Z,9.67
2018-08-24T22:29:57.337Z,10.20
2018-08-24T22:32:25.026Z,9.50
2018-08-24T22:34:52.726Z,11.83
2018-08-24T22:37:20.424Z,9.50
2018-08-24T22:39:48.086Z,9.17
2018-08-24T22:42:15.737Z,9.47
2018-08-24T22:44:43.422Z,8.03
2018-08-24T22:47:11.122Z,11.97
2018-08-24T22:49:38.789Z,16.10
2018-08-24T22:52:06.572Z,13.70
2018-08-24T22:54:34.236Z,10.50
2018-08-24T22:57:02.018Z,10.27
2018-08-24T22:59:29.759Z,11.10
2018-08-24T23:01:57.410Z,10.67
2018-08-24T23:04:25.066Z,14.70
2018-08-24T23:06:52.750Z,9.80
2018-08-24T23:09:20.414Z,9.93
2018-08-24T23:11:48.061Z,9.57
2018-08-24T23:14:15.742Z,11.57
2018-08-24T23:16:43.410Z,9.50
2018-08-24T23:19:11.076Z,10.07
2018-08-24T23:21:38.754Z,11.53
2018-08-24T23:24:06.450Z,11.20
2018-08-24T23:26:34.129Z,9.63
2018-08-24T23:29:01.836Z,10.43
2018-08-24T23:31:29.487Z,11.70
2018-08-24T23:33:57.183Z,9.63
2018-08-24T23:36:24.939Z,10.70
2018-08-24T23:38:52.634Z,9.70
2018-08-24T23:41:20.299Z,12.33
2018-08-24T23:43:48.079Z,8.70
2018-08-24T23:46:15.913Z,9.20
2018-08-24T23:48:43.570Z,10.13
2018-08-24T23:51:11.261Z,13.07
2018-08-24T23:53:38.916Z,8.57
2018-08-24T23:56:06.601Z,11.33
2018-08-24T23:58:34.287Z,8.87
